Caribou, ME

9:20 PM EST on January 21, 2018 (GMT -0500)
Caribou Municipal | | Change Station
Active Advisory: Winter Storm Watch

Elev 623 ft 46.87 °N, 68.02 °W | Updated 26 minutes ago

Mostly Cloudy
Mostly Cloudy
13 °F
Feels Like 0 °F
N
10
Wind Variable Wind from NW

Today
High -- | Low -- °F
--% Chance of Precip.
Yesterday
High -- | Low -- °F
Precip. -- in
Pressure 30.23 in
Visibility 10.0 miles
Clouds Mostly Cloudy 10000 ft
Windchill 0 °F
Dew Point -4 °F
Humidity 47%
Rainfall 0.00 in
Snow Depth Not available.
7:08 AM 4:18 PM
Waxing Crescent, 22% visible
METAR KCAR 220154Z AUTO 32009KT 10SM BKN100 M11/M20 A3018 RMK AO2 SLP236 T11061200
Pressure 30.23 in
Visibility 10.0 miles
Clouds Mostly Cloudy 10000 ft
Windchill 0 °F
Dew Point -4 °F
Humidity 47%
Rainfall 0.00 in
Snow Depth Not available.
7:08 AM 4:18 PM
Waxing Crescent, 22% visible
METAR KCAR 220154Z AUTO 32009KT 10SM BKN100 M11/M20 A3018 RMK AO2 SLP236 T11061200

Get Your Daily Forecast Email!

Thanks for signing up!

Be on the lookout for a verification email in your inbox.

You'll start receiving severe weather alerts in your inbox..

×

10-Day Weather Forecast

Almanac

Astronomy

Jan. 21, 2018 Rise Set
Actual Time
Civil Twilight
Nautical Twilight
Astronomical Twilight
Moon
Length of Visible Light
Length of Day
Tomorrow will be .
, % of the Moon is Illuminated

Today's Extremes

State Highs State Lows

Community

WunderPhotos

Category 6

Welcome to Category 6. This is the collective home for Weather Underground's featured writeups by Dr. Jeff Masters (right), Bob Henson (left), Chris Burt, and other regular contributors.

Nearby

Air Quality

  Air Quality AQ Index Pollutant
Not available.

Snow Depth

Station Depth Elevation

Earthquake Activity

City Distance Mag. Time & Date
Minimum magnitude displayed is 2.5.

Coastal Water Temperatures

Place Temperature

Stations

Nearby Weather Stations

Station Location Temp. Windchill Dew Point Humidity Wind Precip. Elev Updated Type
                   

Watches & Warnings

Winter Storm Watch
Issued: 7:02 PM EST Jan. 21, 2018 – National Weather Service

... Winter Storm Watch in effect from Monday evening through
Tuesday evening...

* what... heavy snow changing to mixed precipitation possible. Plan
on difficult travel conditions, including during the morning
commute on Tuesday. Total snow accumulations of 4 to 7 inches
are possible, with sleet accumulations of up to 1 inch, and ice
accumulations of one to two tenths of an inch.

* Where... northeast Aroostook County.

* When... from Monday evening through Tuesday evening.

* Additional details... significant reductions in visibility are
possible.

Precautionary/preparedness actions...

A Winter Storm Watch means there is potential for significant
snow, sleet or ice accumulations that may impact travel. Continue
to monitor the latest forecasts.